Time;durP1;ratioP1;P1;durP2;ratioP2;P2;SDS_P1;SDS_P2;PMS_P1;PMS_P2;Temp;Humidity;BMP_temperature;BMP_pressure;BME280_temperature;BME280_humidity;BME280_pressure;Samples;Min_cycle;Max_cycle;Signal;HPM_P1;HPM_P2
2023/11/15 00:01:07;;;;;;;54.33;9.90;;;;;;;;;;5051155;28;20154;-43
2023/11/15 00:03:33;;;;;;;52.08;10.35;;;;;;;;;;5051592;28;20021;-40
2023/11/15 00:06:00;;;;;;;51.08;10.57;;;;;;;;;;5050903;28;20049;-40
2023/11/15 00:08:27;;;;;;;47.33;10.48;;;;;;;;;;5033357;28;20043;-39
2023/11/15 00:10:55;;;;;;;53.70;10.05;;;;;;;;;;5050217;28;20033;-37
2023/11/15 00:13:22;;;;;;;54.38;10.90;;;;;;;;;;5053874;28;20041;-39
2023/11/15 00:15:49;;;;;;;58.10;10.77;;;;;;;;;;5051361;28;20028;-40
2023/11/15 00:18:16;;;;;;;57.38;11.80;;;;;;;;;;5051621;28;20029;-40
2023/11/15 00:20:43;;;;;;;55.00;11.65;;;;;;;;;;5051422;28;20033;-40
2023/11/15 00:23:10;;;;;;;60.53;11.63;;;;;;;;;;5051365;28;20103;-40
2023/11/15 00:25:37;;;;;;;56.95;10.60;;;;;;;;;;5050782;28;20044;-40
2023/11/15 00:28:04;;;;;;;48.95;11.60;;;;;;;;;;5051450;28;20136;-41
2023/11/15 00:30:32;;;;;;;66.05;11.32;;;;;;;;;;5049563;28;20051;-38
2023/11/15 00:32:59;;;;;;;65.30;11.75;;;;;;;;;;5041100;28;20468;-39
2023/11/15 00:35:26;;;;;;;60.53;11.75;;;;;;;;;;5050283;28;20036;-42
2023/11/15 00:37:54;;;;;;;60.80;11.77;;;;;;;;;;5031169;28;20049;-46
2023/11/15 00:40:22;;;;;;;56.83;10.80;;;;;;;;;;5045975;28;20041;-41
2023/11/15 00:42:49;;;;;;;65.00;12.23;;;;;;;;;;5050619;28;20059;-48
2023/11/15 00:45:16;;;;;;;55.28;12.27;;;;;;;;;;5050390;28;20021;-40
2023/11/15 00:47:43;;;;;;;65.50;13.95;;;;;;;;;;5031729;28;20025;-39
2023/11/15 00:50:10;;;;;;;53.47;14.98;;;;;;;;;;5050884;28;20056;-40
2023/11/15 00:52:37;;;;;;;68.65;15.63;;;;;;;;;;5051176;28;20483;-39
2023/11/15 00:55:04;;;;;;;75.05;17.08;;;;;;;;;;5050199;28;20031;-37
2023/11/15 00:57:31;;;;;;;75.95;16.52;;;;;;;;;;5048128;28;20490;-41
2023/11/15 00:59:59;;;;;;;84.93;17.40;;;;;;;;;;5049265;28;20099;-38
2023/11/15 01:02:32;;;;;;;70.45;15.80;;;;;;;;;;5049610;28;20032;-40
2023/11/15 01:05:00;;;;;;;64.70;13.65;;;;;;;;;;5049516;28;20025;-45
2023/11/15 01:07:27;;;;;;;65.13;14.00;;;;;;;;;;5047213;28;20090;-39
2023/11/15 01:09:55;;;;;;;66.55;13.77;;;;;;;;;;5048508;28;20040;-47
2023/11/15 01:12:22;;;;;;;56.72;12.60;;;;;;;;;;5048315;28;20068;-41
2023/11/15 01:14:49;;;;;;;54.60;13.00;;;;;;;;;;5050247;28;20399;-39
2023/11/15 01:17:16;;;;;;;56.15;11.60;;;;;;;;;;5048644;28;20147;-44
2023/11/15 01:19:43;;;;;;;66.65;13.35;;;;;;;;;;5049428;28;20032;-41
2023/11/15 01:22:10;;;;;;;55.05;12.32;;;;;;;;;;5027185;28;20377;-43
2023/11/15 01:24:39;;;;;;;55.67;12.07;;;;;;;;;;5046230;28;20036;-47
2023/11/15 01:27:06;;;;;;;61.88;12.95;;;;;;;;;;5050159;28;20036;-42
2023/11/15 01:29:33;;;;;;;47.45;11.38;;;;;;;;;;5050489;28;20033;-36
2023/11/15 01:32:00;;;;;;;54.58;11.90;;;;;;;;;;5050170;28;20028;-40
2023/11/15 01:34:27;;;;;;;51.92;11.77;;;;;;;;;;5050321;28;20025;-41
2023/11/15 01:36:54;;;;;;;43.90;10.77;;;;;;;;;;5051665;28;20490;-39
2023/11/15 01:39:23;;;;;;;41.63;10.50;;;;;;;;;;5053995;28;20021;-37
2023/11/15 01:41:51;;;;;;;39.17;9.95;;;;;;;;;;5053991;28;20398;-36
2023/11/15 01:44:19;;;;;;;36.75;9.30;;;;;;;;;;5053768;28;20029;-37
2023/11/15 01:46:50;;;;;;;34.60;8.77;;;;;;;;;;5053787;28;20028;-36
2023/11/15 01:49:17;;;;;;;28.03;8.63;;;;;;;;;;5042016;28;20033;-36
2023/11/15 01:51:45;;;;;;;43.05;9.13;;;;;;;;;;5053595;28;20796;-36
2023/11/15 01:54:15;;;;;;;40.90;9.93;;;;;;;;;;5016419;28;20033;-37
2023/11/15 01:56:43;;;;;;;42.40;9.27;;;;;;;;;;5044057;28;20040;-36
2023/11/15 01:59:10;;;;;;;34.33;8.70;;;;;;;;;;5053419;28;20090;-38
2023/11/15 02:01:37;;;;;;;40.92;9.50;;;;;;;;;;5053490;28;20035;-37
2023/11/15 02:04:05;;;;;;;42.63;9.43;;;;;;;;;;5035499;28;20028;-37
2023/11/15 02:06:35;;;;;;;41.22;8.90;;;;;;;;;;5053225;28;20041;-37
2023/11/15 02:09:04;;;;;;;45.55;9.63;;;;;;;;;;5050786;28;20048;-37
2023/11/15 02:11:31;;;;;;;46.10;9.77;;;;;;;;;;5053201;28;20044;-37
2023/11/15 02:14:01;;;;;;;40.30;8.90;;;;;;;;;;5050325;28;20056;-37
2023/11/15 02:16:28;;;;;;;39.60;7.93;;;;;;;;;;5053166;28;20395;-38
2023/11/15 02:18:56;;;;;;;47.20;9.05;;;;;;;;;;5052929;28;20438;-38
2023/11/15 02:21:23;;;;;;;40.60;7.35;;;;;;;;;;5052892;28;20099;-37
2023/11/15 02:23:51;;;;;;;37.58;7.15;;;;;;;;;;5052660;28;20032;-37
2023/11/15 02:26:19;;;;;;;35.13;7.60;;;;;;;;;;5052697;28;20083;-37
2023/11/15 02:28:46;;;;;;;32.30;6.10;;;;;;;;;;5052173;28;20506;-37
2023/11/15 02:31:13;;;;;;;30.55;6.32;;;;;;;;;;5053025;28;20365;-37
2023/11/15 02:33:40;;;;;;;21.63;5.20;;;;;;;;;;5050276;28;20039;-37
2023/11/15 02:36:07;;;;;;;30.75;5.80;;;;;;;;;;5052742;28;20059;-37
2023/11/15 02:38:34;;;;;;;27.38;5.85;;;;;;;;;;5052939;28;20052;-36
2023/11/15 02:41:01;;;;;;;23.63;5.05;;;;;;;;;;5050302;28;20037;-37
2023/11/15 02:43:28;;;;;;;17.80;4.13;;;;;;;;;;5039321;28;20036;-37
2023/11/15 02:45:55;;;;;;;27.45;4.85;;;;;;;;;;5033415;28;20029;-37
2023/11/15 02:48:22;;;;;;;20.17;4.65;;;;;;;;;;5032783;28;20029;-37
2023/11/15 02:50:50;;;;;;;23.67;5.43;;;;;;;;;;5033038;28;20438;-37
2023/11/15 02:53:18;;;;;;;28.50;5.03;;;;;;;;;;5033238;28;20025;-37
2023/11/15 02:55:46;;;;;;;21.23;5.00;;;;;;;;;;5032958;28;20080;-37
2023/11/15 02:58:14;;;;;;;21.77;4.25;;;;;;;;;;5033144;28;20083;-36
2023/11/15 03:00:41;;;;;;;20.13;4.78;;;;;;;;;;5033077;28;20033;-37
2023/11/15 03:03:08;;;;;;;21.38;5.18;;;;;;;;;;5033075;28;20032;-37
2023/11/15 03:05:36;;;;;;;25.67;4.63;;;;;;;;;;5032810;28;20045;-37
2023/11/15 03:08:05;;;;;;;17.63;4.20;;;;;;;;;;5032898;28;20041;-37
2023/11/15 03:10:33;;;;;;;18.17;4.90;;;;;;;;;;5032944;28;20077;-36
2023/11/15 03:13:01;;;;;;;21.90;5.00;;;;;;;;;;5032745;28;20037;-37
2023/11/15 03:15:29;;;;;;;19.52;4.50;;;;;;;;;;5032648;28;20052;-37
2023/11/15 03:17:56;;;;;;;18.13;4.50;;;;;;;;;;5032436;28;20487;-37
2023/11/15 03:20:23;;;;;;;14.63;4.65;;;;;;;;;;5032670;28;20044;-37
2023/11/15 03:22:50;;;;;;;23.27;4.65;;;;;;;;;;5032709;28;20029;-37
2023/11/15 03:25:17;;;;;;;15.48;4.22;;;;;;;;;;5032516;28;20036;-37
2023/11/15 03:27:44;;;;;;;18.63;4.78;;;;;;;;;;5032558;28;20193;-38
2023/11/15 03:30:12;;;;;;;18.30;4.45;;;;;;;;;;5032575;28;20029;-37
2023/11/15 03:32:39;;;;;;;18.80;4.47;;;;;;;;;;5032501;28;20029;-37
2023/11/15 03:35:06;;;;;;;15.02;3.53;;;;;;;;;;5032360;28;20044;-37
2023/11/15 03:37:33;;;;;;;18.63;4.40;;;;;;;;;;5032386;28;20029;-37
2023/11/15 03:40:00;;;;;;;17.15;4.32;;;;;;;;;;5032283;28;20501;-37
2023/11/15 03:42:27;;;;;;;12.57;3.70;;;;;;;;;;5032349;28;20033;-36
2023/11/15 03:44:54;;;;;;;15.73;3.97;;;;;;;;;;5032241;28;20380;-37
2023/11/15 03:47:21;;;;;;;13.40;3.72;;;;;;;;;;5032275;28;20033;-37
2023/11/15 03:49:48;;;;;;;17.58;4.20;;;;;;;;;;5032106;28;20462;-37
2023/11/15 03:52:15;;;;;;;13.68;3.47;;;;;;;;;;5032102;28;20101;-37
2023/11/15 03:54:42;;;;;;;12.40;3.50;;;;;;;;;;5032079;28;20021;-37
2023/11/15 03:57:11;;;;;;;16.45;3.65;;;;;;;;;;5031987;28;20056;-37
2023/11/15 03:59:38;;;;;;;16.58;3.55;;;;;;;;;;5031337;28;20091;-37
2023/11/15 04:02:06;;;;;;;10.02;3.40;;;;;;;;;;5031691;28;20068;-37
2023/11/15 04:04:33;;;;;;;10.23;3.30;;;;;;;;;;5031762;28;20038;-37
2023/11/15 04:07:01;;;;;;;11.07;2.80;;;;;;;;;;5031735;28;20582;-37
2023/11/15 04:09:29;;;;;;;14.25;3.65;;;;;;;;;;5031804;28;20033;-37
2023/11/15 04:11:56;;;;;;;15.25;3.38;;;;;;;;;;5031865;28;20075;-37
2023/11/15 04:14:24;;;;;;;10.25;3.35;;;;;;;;;;5031726;28;20037;-36
2023/11/15 04:16:52;;;;;;;14.07;3.60;;;;;;;;;;5031603;28;20038;-37
2023/11/15 04:19:22;;;;;;;11.90;3.65;;;;;;;;;;5031732;28;20046;-37
2023/11/15 04:21:49;;;;;;;9.80;2.97;;;;;;;;;;5031678;28;20391;-37
2023/11/15 04:24:20;;;;;;;9.93;2.83;;;;;;;;;;5031482;28;20529;-39
2023/11/15 04:26:47;;;;;;;9.20;2.95;;;;;;;;;;5031624;28;20043;-37
2023/11/15 04:29:14;;;;;;;10.82;3.25;;;;;;;;;;5031661;28;20034;-37
2023/11/15 04:31:41;;;;;;;9.98;3.10;;;;;;;;;;5031630;28;20030;-37
2023/11/15 04:34:08;;;;;;;13.60;2.80;;;;;;;;;;5031565;28;20057;-36
2023/11/15 04:36:35;;;;;;;10.13;2.90;;;;;;;;;;5031563;28;20060;-37
2023/11/15 04:39:06;;;;;;;6.13;2.08;;;;;;;;;;5031580;28;20080;-37
2023/11/15 04:41:33;;;;;;;6.32;2.42;;;;;;;;;;5031407;28;20042;-37
2023/11/15 04:44:01;;;;;;;8.68;2.25;;;;;;;;;;5031448;28;20040;-37
2023/11/15 04:46:28;;;;;;;11.73;2.67;;;;;;;;;;5019843;28;20032;-37
2023/11/15 04:48:55;;;;;;;9.55;2.55;;;;;;;;;;5051353;28;20033;-37
2023/11/15 04:51:22;;;;;;;9.77;2.08;;;;;;;;;;5051375;28;20514;-38
2023/11/15 04:53:49;;;;;;;6.45;2.03;;;;;;;;;;5051129;28;20044;-37
2023/11/15 04:56:16;;;;;;;8.73;2.25;;;;;;;;;;5051193;28;20529;-37
2023/11/15 04:58:43;;;;;;;8.98;2.30;;;;;;;;;;5051332;28;20498;-37
2023/11/15 05:01:12;;;;;;;8.98;2.22;;;;;;;;;;5051197;28;20021;-37
2023/11/15 05:03:39;;;;;;;6.03;2.03;;;;;;;;;;5051030;28;20029;-36
2023/11/15 05:06:06;;;;;;;4.45;1.90;;;;;;;;;;5051045;28;20151;-37
2023/11/15 05:08:33;;;;;;;7.22;2.00;;;;;;;;;;5051037;28;20089;-37
2023/11/15 05:11:01;;;;;;;4.95;2.00;;;;;;;;;;5051233;28;20021;-37
2023/11/15 05:13:32;;;;;;;8.18;2.30;;;;;;;;;;5054637;28;20052;-37
2023/11/15 05:15:58;;;;;;;5.65;2.03;;;;;;;;;;5054963;28;20450;-37
2023/11/15 05:18:25;;;;;;;6.63;1.80;;;;;;;;;;5054895;28;20403;-37
2023/11/15 05:20:52;;;;;;;3.75;1.45;;;;;;;;;;5054939;28;20540;-37
2023/11/15 05:23:19;;;;;;;6.97;1.63;;;;;;;;;;5054833;28;20029;-37
2023/11/15 05:25:47;;;;;;;3.88;1.92;;;;;;;;;;5054837;28;20040;-37
2023/11/15 05:28:14;;;;;;;6.68;1.80;;;;;;;;;;5054660;28;20059;-37
2023/11/15 05:30:42;;;;;;;3.55;1.40;;;;;;;;;;5054657;28;20391;-36
2023/11/15 05:33:09;;;;;;;6.25;1.67;;;;;;;;;;5054497;28;20032;-38
2023/11/15 05:35:36;;;;;;;3.80;1.33;;;;;;;;;;5045694;28;20034;-37
2023/11/15 05:38:03;;;;;;;5.63;1.50;;;;;;;;;;5034591;28;20102;-37
2023/11/15 05:40:30;;;;;;;5.63;1.80;;;;;;;;;;5016743;28;20423;-37
2023/11/15 05:42:57;;;;;;;4.88;1.45;;;;;;;;;;5034629;28;20372;-37
2023/11/15 05:45:25;;;;;;;3.88;1.52;;;;;;;;;;5034451;28;20127;-37
2023/11/15 05:47:52;;;;;;;3.65;1.35;;;;;;;;;;5034393;28;20033;-37
2023/11/15 05:50:19;;;;;;;8.27;1.50;;;;;;;;;;5034404;28;20103;-37
2023/11/15 05:52:46;;;;;;;4.97;1.35;;;;;;;;;;5034367;28;20029;-38
2023/11/15 05:55:13;;;;;;;4.20;1.55;;;;;;;;;;5034303;28;20025;-37
2023/11/15 05:57:40;;;;;;;3.35;1.23;;;;;;;;;;5034240;28;20455;-37
2023/11/15 06:00:18;;;;;;;3.80;1.30;;;;;;;;;;5034201;28;20025;-37
2023/11/15 06:02:47;;;;;;;3.25;1.15;;;;;;;;;;5049922;28;20045;-37
2023/11/15 06:05:14;;;;;;;5.57;1.52;;;;;;;;;;5053713;28;20045;-37
2023/11/15 06:07:41;;;;;;;4.15;1.50;;;;;;;;;;5054109;28;20048;-37
2023/11/15 06:10:08;;;;;;;4.57;1.27;;;;;;;;;;5054037;28;20029;-37
2023/11/15 06:12:36;;;;;;;2.85;1.00;;;;;;;;;;5053793;28;20083;-37
2023/11/15 06:15:03;;;;;;;4.32;1.20;;;;;;;;;;5053617;28;20051;-37
2023/11/15 06:17:31;;;;;;;3.25;1.20;;;;;;;;;;5053854;28;20039;-37
2023/11/15 06:19:57;;;;;;;3.50;1.08;;;;;;;;;;5053855;28;20034;-37
2023/11/15 06:22:25;;;;;;;3.42;1.38;;;;;;;;;;5053751;28;20025;-37
2023/11/15 06:24:53;;;;;;;2.05;1.00;;;;;;;;;;5052812;28;20033;-37
2023/11/15 06:27:20;;;;;;;2.92;1.25;;;;;;;;;;5053783;28;20040;-37
2023/11/15 06:29:48;;;;;;;3.40;1.38;;;;;;;;;;5053689;28;20021;-37
2023/11/15 06:32:15;;;;;;;2.92;1.05;;;;;;;;;;5053510;28;20564;-37
2023/11/15 06:34:46;;;;;;;3.42;1.25;;;;;;;;;;5053376;28;20052;-37
2023/11/15 06:37:16;;;;;;;3.72;1.10;;;;;;;;;;5053249;28;20040;-37
2023/11/15 06:39:43;;;;;;;4.07;1.23;;;;;;;;;;5053504;28;20036;-37
2023/11/15 06:42:13;;;;;;;3.67;1.00;;;;;;;;;;5035543;28;20394;-37
2023/11/15 06:44:40;;;;;;;3.03;0.98;;;;;;;;;;5053309;28;20029;-37
2023/11/15 06:47:08;;;;;;;3.75;1.10;;;;;;;;;;5053355;28;20044;-37
2023/11/15 06:49:39;;;;;;;6.38;1.13;;;;;;;;;;5053027;28;20044;-37
2023/11/15 06:52:06;;;;;;;3.45;1.17;;;;;;;;;;5053279;28;20029;-37
2023/11/15 06:54:33;;;;;;;2.45;1.00;;;;;;;;;;5053146;28;20074;-37
2023/11/15 06:57:00;;;;;;;4.18;1.23;;;;;;;;;;5053043;28;20036;-37
2023/11/15 06:59:26;;;;;;;5.55;1.20;;;;;;;;;;5053146;28;20021;-36
2023/11/15 07:01:54;;;;;;;2.72;1.00;;;;;;;;;;5053031;28;20039;-37
2023/11/15 07:04:22;;;;;;;1.92;0.93;;;;;;;;;;5052821;28;20112;-37
2023/11/15 07:06:49;;;;;;;3.85;1.02;;;;;;;;;;5052884;28;20404;-37
2023/11/15 07:09:18;;;;;;;3.53;0.93;;;;;;;;;;5052974;28;20442;-37
2023/11/15 07:11:48;;;;;;;2.35;0.90;;;;;;;;;;5052974;28;20040;-37
2023/11/15 07:14:15;;;;;;;2.00;0.88;;;;;;;;;;5052740;28;20033;-37
2023/11/15 07:16:52;;;;;;;4.28;1.20;;;;;;;;;;5052733;28;20047;-37
2023/11/15 07:19:19;;;;;;;2.63;0.90;;;;;;;;;;5052523;28;20060;-37
2023/11/15 07:21:46;;;;;;;3.20;1.10;;;;;;;;;;5052650;28;20029;-37
2023/11/15 07:24:13;;;;;;;3.72;1.10;;;;;;;;;;5052552;28;20631;-37
2023/11/15 07:26:40;;;;;;;4.35;1.13;;;;;;;;;;5052552;28;20083;-36
2023/11/15 07:29:08;;;;;;;4.88;1.40;;;;;;;;;;5052460;28;20564;-39
2023/11/15 07:31:35;;;;;;;2.78;1.30;;;;;;;;;;5052452;28;20029;-37
2023/11/15 07:34:05;;;;;;;2.35;1.10;;;;;;;;;;5052294;28;20025;-37
2023/11/15 07:36:33;;;;;;;2.72;1.00;;;;;;;;;;5052203;28;20060;-37
2023/11/15 07:39:06;;;;;;;3.53;1.35;;;;;;;;;;5052324;28;20048;-37
2023/11/15 07:41:36;;;;;;;3.58;1.02;;;;;;;;;;5052155;28;20025;-36
2023/11/15 07:44:03;;;;;;;3.15;1.27;;;;;;;;;;5052249;28;20384;-39
2023/11/15 07:46:30;;;;;;;3.08;1.17;;;;;;;;;;5052120;28;20390;-37
2023/11/15 07:49:00;;;;;;;3.95;1.13;;;;;;;;;;5052190;28;20479;-37
2023/11/15 07:51:28;;;;;;;3.30;1.20;;;;;;;;;;5051959;28;20437;-37
2023/11/15 07:53:55;;;;;;;2.80;1.23;;;;;;;;;;5051884;28;20252;-37
2023/11/15 07:56:23;;;;;;;3.42;1.30;;;;;;;;;;5051941;28;20040;-37
2023/11/15 07:58:50;;;;;;;4.90;1.50;;;;;;;;;;5052027;28;20120;-37
2023/11/15 08:01:18;;;;;;;2.95;1.13;;;;;;;;;;5052101;28;20033;-37
2023/11/15 08:03:45;;;;;;;3.17;1.27;;;;;;;;;;5051866;28;20398;-37
2023/11/15 08:06:12;;;;;;;3.33;1.20;;;;;;;;;;5051732;28;20071;-37
2023/11/15 08:08:39;;;;;;;2.45;1.00;;;;;;;;;;5051848;28;20094;-36
2023/11/15 08:11:06;;;;;;;3.60;0.98;;;;;;;;;;5051863;28;20037;-37
2023/11/15 08:13:33;;;;;;;6.53;1.10;;;;;;;;;;5051756;28;20021;-36
2023/11/15 08:16:01;;;;;;;5.97;1.02;;;;;;;;;;5051725;28;20426;-37
2023/11/15 08:18:28;;;;;;;8.80;1.50;;;;;;;;;;5051722;28;20061;-37
2023/11/15 08:20:56;;;;;;;2.75;0.90;;;;;;;;;;5051641;28;20087;-36
2023/11/15 08:23:26;;;;;;;5.43;1.30;;;;;;;;;;5051494;28;20037;-36
2023/11/15 08:25:53;;;;;;;3.30;1.00;;;;;;;;;;5051635;28;20025;-36
2023/11/15 08:28:20;;;;;;;4.95;0.98;;;;;;;;;;5051585;28;20391;-37
2023/11/15 08:30:48;;;;;;;6.20;1.20;;;;;;;;;;5033661;28;20039;-36
2023/11/15 08:33:16;;;;;;;3.25;1.13;;;;;;;;;;5051607;28;20029;-36
2023/11/15 08:35:44;;;;;;;5.18;0.95;;;;;;;;;;5051681;28;20036;-37
2023/11/15 08:38:12;;;;;;;5.10;0.90;;;;;;;;;;5051361;28;20068;-36
2023/11/15 08:40:39;;;;;;;1.85;0.95;;;;;;;;;;5051277;28;20560;-36
2023/11/15 08:43:08;;;;;;;2.97;1.00;;;;;;;;;;5051436;28;20509;-37
2023/11/15 08:45:41;;;;;;;5.60;1.10;;;;;;;;;;5051466;28;20061;-37
2023/11/15 08:48:08;;;;;;;;;;;;;;;;;;5055481;28;20453;-37
2023/11/15 08:50:35;;;;;;;3.58;1.10;;;;;;;;;;5055567;28;20023;-37
2023/11/15 08:53:03;;;;;;;5.05;0.85;;;;;;;;;;5055319;28;20029;-36
2023/11/15 08:55:30;;;;;;;2.97;1.00;;;;;;;;;;5054634;28;20029;-37
2023/11/15 08:57:57;;;;;;;2.42;0.80;;;;;;;;;;5054731;28;20033;-37
2023/11/15 09:00:24;;;;;;;4.68;0.93;;;;;;;;;;5054762;28;20029;-37
2023/11/15 09:02:51;;;;;;;4.32;0.95;;;;;;;;;;5054513;28;20390;-36
2023/11/15 09:05:22;;;;;;;2.92;0.80;;;;;;;;;;5054418;28;20049;-37
2023/11/15 09:07:49;;;;;;;4.93;0.93;;;;;;;;;;5054384;28;20932;-37
2023/11/15 09:10:16;;;;;;;2.95;1.17;;;;;;;;;;5054616;28;20039;-37
2023/11/15 09:12:46;;;;;;;4.10;1.08;;;;;;;;;;5054565;28;20123;-37
2023/11/15 09:15:13;;;;;;;1.05;0.70;;;;;;;;;;5052693;28;20475;-37
2023/11/15 09:17:48;;;;;;;2.88;1.00;;;;;;;;;;5054314;28;20574;-37
2023/11/15 09:20:20;;;;;;;5.03;1.05;;;;;;;;;;5051750;28;20039;-40
2023/11/15 09:22:53;;;;;;;2.42;0.95;;;;;;;;;;5053795;28;20056;-35
2023/11/15 09:25:31;;;;;;;5.03;1.02;;;;;;;;;;5052260;28;20384;-34
2023/11/15 09:28:02;;;;;;;4.47;1.30;;;;;;;;;;5052004;28;20199;-35
2023/11/15 09:30:32;;;;;;;1.97;0.80;;;;;;;;;;5054105;28;20037;-45
2023/11/15 09:33:03;;;;;;;4.47;0.90;;;;;;;;;;5053946;28;20037;-44
2023/11/15 09:35:31;;;;;;;6.10;1.20;;;;;;;;;;5053493;28;20218;-44
2023/11/15 09:37:58;;;;;;;8.00;1.08;;;;;;;;;;5053729;28;20039;-43
2023/11/15 09:40:26;;;;;;;11.18;1.33;;;;;;;;;;5053955;28;20087;-44
2023/11/15 09:42:54;;;;;;;8.68;1.77;;;;;;;;;;5053793;28;20021;-45
2023/11/15 09:45:23;;;;;;;3.88;1.00;;;;;;;;;;5053936;28;20426;-44
2023/11/15 09:47:54;;;;;;;5.53;1.20;;;;;;;;;;5053538;28;20025;-45
2023/11/15 09:50:24;;;;;;;6.68;1.35;;;;;;;;;;5053895;28;20033;-44
2023/11/15 09:52:53;;;;;;;11.80;1.52;;;;;;;;;;5033659;28;20036;-44
2023/11/15 09:55:23;;;;;;;12.20;1.58;;;;;;;;;;5054172;28;20383;-44
2023/11/15 09:57:51;;;;;;;6.70;1.30;;;;;;;;;;5042524;28;20894;-44
2023/11/15 10:00:21;;;;;;;2.80;0.95;;;;;;;;;;5053476;28;20063;-44
2023/11/15 10:02:48;;;;;;;7.35;1.63;;;;;;;;;;5053299;28;20410;-44
2023/11/15 10:05:20;;;;;;;10.88;1.35;;;;;;;;;;5053320;28;20125;-44
2023/11/15 10:07:55;;;;;;;8.75;1.35;;;;;;;;;;5053338;28;20558;-44
2023/11/15 10:10:24;;;;;;;7.97;1.35;;;;;;;;;;5053396;28;20391;-42
2023/11/15 10:12:53;;;;;;;10.82;1.40;;;;;;;;;;5050645;28;20036;-43
2023/11/15 10:15:29;;;;;;;9.35;1.08;;;;;;;;;;5053237;28;20025;-43
2023/11/15 10:17:56;;;;;;;10.15;1.17;;;;;;;;;;5051347;28;20033;-42
2023/11/15 10:20:25;;;;;;;4.03;0.90;;;;;;;;;;5053616;28;20036;-44
2023/11/15 10:22:57;;;;;;;12.55;1.60;;;;;;;;;;5053588;28;20052;-44
2023/11/15 10:25:27;;;;;;;9.43;1.20;;;;;;;;;;5053668;28;20045;-44
2023/11/15 10:28:14;;;;;;;8.60;1.50;;;;;;;;;;5053743;28;20044;-44
2023/11/15 10:30:41;;;;;;;8.70;1.15;;;;;;;;;;5053562;28;20071;-44
2023/11/15 10:33:13;;;;;;;12.13;1.50;;;;;;;;;;5052221;28;20426;-45
2023/11/15 10:35:43;;;;;;;6.25;1.20;;;;;;;;;;5035566;28;20040;-43
2023/11/15 10:38:19;;;;;;;8.07;1.30;;;;;;;;;;5053154;28;20044;-42
2023/11/15 10:40:46;;;;;;;7.60;1.35;;;;;;;;;;5053094;28;20498;-43
2023/11/15 10:43:19;;;;;;;10.32;1.70;;;;;;;;;;5053273;28;20029;-44
2023/11/15 10:45:47;;;;;;;7.55;1.20;;;;;;;;;;5053171;28;20036;-44
2023/11/15 10:48:21;;;;;;;13.77;1.60;;;;;;;;;;5053353;28;20794;-44
2023/11/15 10:50:50;;;;;;;10.27;1.40;;;;;;;;;;5053182;28;20021;-45
2023/11/15 10:53:18;;;;;;;10.75;1.58;;;;;;;;;;5053223;28;20032;-44
2023/11/15 10:55:46;;;;;;;5.95;1.50;;;;;;;;;;5053059;28;20091;-44
2023/11/15 10:58:16;;;;;;;11.75;1.77;;;;;;;;;;5052994;28;20029;-44
2023/11/15 11:00:43;;;;;;;10.57;1.30;;;;;;;;;;5052662;28;20122;-43
2023/11/15 11:03:11;;;;;;;25.48;2.10;;;;;;;;;;5052668;28;20174;-44
2023/11/15 11:05:52;;;;;;;10.02;1.30;;;;;;;;;;5052843;28;20114;-45
2023/11/15 11:08:45;;;;;;;12.88;1.60;;;;;;;;;;5052778;28;20048;-44
2023/11/15 11:11:14;;;;;;;10.57;1.23;;;;;;;;;;5052681;28;20025;-44
2023/11/15 11:13:41;;;;;;;12.82;1.75;;;;;;;;;;5052623;28;20041;-45
2023/11/15 11:16:28;;;;;;;5.70;1.15;;;;;;;;;;5052663;28;20029;-42
2023/11/15 11:19:21;;;;;;;9.48;1.30;;;;;;;;;;5052321;28;20056;-42
2023/11/15 11:24:39;;;;;;;18.23;2.03;;;;;;;;;;5052503;28;20041;-45
2023/11/15 11:27:07;;;;;;;;;;;;;;;;;;5053190;28;20025;-45
2023/11/15 11:29:55;;;;;;;7.03;1.40;;;;;;;;;;5052446;28;20377;-45
2023/11/15 11:32:35;;;;;;;13.60;1.73;;;;;;;;;;5052385;28;20068;-45
2023/11/15 11:35:05;;;;;;;15.07;1.70;;;;;;;;;;5052337;28;20025;-45
2023/11/15 11:37:44;;;;;;;7.57;1.25;;;;;;;;;;5052216;28;20044;-45
2023/11/15 11:40:14;;;;;;;37.97;3.63;;;;;;;;;;5052229;28;20040;-45
2023/11/15 11:42:47;;;;;;;19.17;1.85;;;;;;;;;;5052152;28;20376;-44
2023/11/15 11:45:15;;;;;;;13.52;1.92;;;;;;;;;;5052185;28;20033;-47
2023/11/15 11:47:46;;;;;;;19.75;2.20;;;;;;;;;;5052126;28;20530;-47
2023/11/15 11:50:25;;;;;;;17.55;2.20;;;;;;;;;;5052213;28;20422;-47
2023/11/15 11:52:55;;;;;;;13.55;1.80;;;;;;;;;;5052070;28;20021;-47
2023/11/15 11:55:22;;;;;;;13.23;1.83;;;;;;;;;;5052021;28;20507;-47
2023/11/15 11:57:49;;;;;;;12.68;1.55;;;;;;;;;;5052003;28;20032;-47
2023/11/15 12:00:18;;;;;;;13.48;2.00;;;;;;;;;;5052050;28;20024;-47
2023/11/15 12:02:54;;;;;;;17.88;2.25;;;;;;;;;;5051787;28;20025;-47
2023/11/15 12:05:22;;;;;;;14.13;1.83;;;;;;;;;;5051731;28;20124;-47
2023/11/15 12:07:50;;;;;;;8.95;1.40;;;;;;;;;;5051933;28;20032;-47
2023/11/15 12:10:18;;;;;;;21.88;2.40;;;;;;;;;;5051974;28;20050;-47
2023/11/15 12:12:54;;;;;;;66.03;6.55;;;;;;;;;;5051670;28;20064;-47
2023/11/15 12:15:27;;;;;;;30.35;3.30;;;;;;;;;;5051716;28;20548;-48
2023/11/15 12:17:58;;;;;;;30.13;2.35;;;;;;;;;;5051742;28;20053;-47
2023/11/15 12:20:33;;;;;;;17.50;2.63;;;;;;;;;;5051573;28;20028;-47
2023/11/15 12:23:05;;;;;;;13.70;2.13;;;;;;;;;;5051376;28;20025;-48
2023/11/15 12:25:32;;;;;;;13.70;2.17;;;;;;;;;;5051577;28;20071;-47
2023/11/15 12:28:03;;;;;;;21.50;2.40;;;;;;;;;;5051669;28;20083;-47
2023/11/15 12:30:33;;;;;;;20.25;2.28;;;;;;;;;;5051633;28;20479;-47
2023/11/15 12:33:03;;;;;;;14.68;2.00;;;;;;;;;;5051520;28;20514;-47
2023/11/15 12:35:31;;;;;;;14.02;2.20;;;;;;;;;;5051565;28;20017;-47
2023/11/15 12:38:04;;;;;;;15.10;2.08;;;;;;;;;;5051251;28;20125;-47
2023/11/15 12:40:32;;;;;;;9.70;1.42;;;;;;;;;;5051642;28;20052;-47
2023/11/15 12:43:13;;;;;;;14.82;1.80;;;;;;;;;;5051313;28;20055;-48
2023/11/15 12:45:40;;;;;;;11.70;1.60;;;;;;;;;;5051473;28;20025;-47
2023/11/15 12:48:10;;;;;;;15.27;1.75;;;;;;;;;;5051274;28;20033;-48
2023/11/15 12:50:41;;;;;;;16.75;2.20;;;;;;;;;;5051415;28;20029;-47
2023/11/15 12:53:13;;;;;;;8.90;1.40;;;;;;;;;;5051298;28;20031;-47
2023/11/15 12:55:46;;;;;;;17.05;1.85;;;;;;;;;;5051298;28;20108;-47
2023/11/15 12:58:17;;;;;;;11.73;1.77;;;;;;;;;;5051281;28;20040;-47
2023/11/15 13:01:03;;;;;;;19.45;2.15;;;;;;;;;;5051290;28;20025;-47
2023/11/15 13:03:34;;;;;;;18.00;2.55;;;;;;;;;;5051226;28;20548;-47
2023/11/15 13:06:13;;;;;;;7.68;1.52;;;;;;;;;;5050948;28;20530;-47
2023/11/15 13:08:45;;;;;;;11.90;1.48;;;;;;;;;;5051068;28;20127;-47
2023/11/15 13:11:16;;;;;;;12.00;1.83;;;;;;;;;;5051149;28;20446;-47
2023/11/15 13:13:50;;;;;;;7.80;1.35;;;;;;;;;;5050964;28;20443;-47
2023/11/15 13:16:17;;;;;;;10.85;1.50;;;;;;;;;;5051100;28;20104;-48
2023/11/15 13:18:47;;;;;;;7.30;1.20;;;;;;;;;;5051104;28;20061;-47
2023/11/15 13:21:14;;;;;;;13.20;1.83;;;;;;;;;;5050973;28;20063;-47
2023/11/15 13:23:57;;;;;;;11.48;1.90;;;;;;;;;;5051007;28;20083;-47
2023/11/15 13:26:25;;;;;;;12.15;1.60;;;;;;;;;;5051137;28;20036;-47
2023/11/15 13:28:52;;;;;;;8.95;1.63;;;;;;;;;;5045379;28;20037;-46
2023/11/15 13:31:23;;;;;;;12.07;1.50;;;;;;;;;;5051028;28;20052;-47
2023/11/15 13:33:52;;;;;;;13.45;1.65;;;;;;;;;;5053741;28;20391;-46
2023/11/15 13:36:20;;;;;;;9.43;1.65;;;;;;;;;;5054499;28;20075;-46
2023/11/15 13:38:48;;;;;;;12.23;1.90;;;;;;;;;;5054706;28;20049;-46
2023/11/15 13:41:21;;;;;;;12.80;1.83;;;;;;;;;;5054450;28;20448;-46
2023/11/15 13:43:50;;;;;;;10.07;1.48;;;;;;;;;;5054395;28;20099;-46
2023/11/15 13:46:22;;;;;;;13.18;1.90;;;;;;;;;;5054392;28;20491;-46
2023/11/15 13:48:52;;;;;;;7.88;1.52;;;;;;;;;;5054389;28;20044;-46
2023/11/15 13:51:19;;;;;;;7.88;1.25;;;;;;;;;;5054343;28;20044;-46
2023/11/15 13:53:46;;;;;;;9.98;1.30;;;;;;;;;;5054280;28;20390;-46
2023/11/15 13:56:15;;;;;;;13.05;1.65;;;;;;;;;;5054423;28;20104;-46
2023/11/15 13:58:42;;;;;;;11.98;1.52;;;;;;;;;;5036418;28;20108;-46
2023/11/15 14:01:10;;;;;;;9.10;1.10;;;;;;;;;;5054314;28;20192;-46
2023/11/15 14:03:38;;;;;;;14.85;1.80;;;;;;;;;;5053949;28;20043;-46
2023/11/15 14:06:05;;;;;;;19.52;3.08;;;;;;;;;;5054078;28;20049;-46
2023/11/15 14:08:40;;;;;;;20.15;3.50;;;;;;;;;;5054142;28;20032;-46
2023/11/15 14:11:07;;;;;;;16.17;3.20;;;;;;;;;;5053906;28;20029;-46
2023/11/15 14:13:36;;;;;;;10.27;1.95;;;;;;;;;;5053967;28;20029;-47
2023/11/15 14:16:06;;;;;;;15.00;2.15;;;;;;;;;;5053842;28;20036;-46
2023/11/15 14:18:33;;;;;;;15.82;2.13;;;;;;;;;;5053835;28;20040;-46
2023/11/15 14:21:00;;;;;;;7.18;1.55;;;;;;;;;;5053975;28;20029;-46
2023/11/15 14:23:27;;;;;;;12.38;1.60;;;;;;;;;;5053652;28;20044;-46
2023/11/15 14:25:56;;;;;;;16.20;2.08;;;;;;;;;;5053797;28;20680;-46
2023/11/15 14:28:23;;;;;;;12.05;1.60;;;;;;;;;;5053653;28;20458;-46
2023/11/15 14:30:51;;;;;;;16.20;2.00;;;;;;;;;;5053571;28;20029;-46
2023/11/15 14:33:18;;;;;;;15.38;2.00;;;;;;;;;;5053439;28;20025;-46
2023/11/15 14:35:45;;;;;;;23.38;3.13;;;;;;;;;;5053638;28;20103;-46
2023/11/15 14:38:13;;;;;;;17.10;2.42;;;;;;;;;;5053499;28;20033;-46
2023/11/15 14:40:40;;;;;;;21.88;2.45;;;;;;;;;;5053597;28;20025;-46
2023/11/15 14:43:09;;;;;;;14.27;2.00;;;;;;;;;;5053445;28;20166;-46
2023/11/15 14:45:36;;;;;;;15.82;1.90;;;;;;;;;;5052526;28;20040;-46
2023/11/15 14:48:04;;;;;;;10.40;1.70;;;;;;;;;;5053401;28;20122;-46